sensor_id;sensor_type;location;lat;lon;timestamp;P1;durP1;ratioP1;P2;durP2;ratioP2
65535;SDS011;52145;49.342;9.116;2023-02-15T00:00:12;38.95;;;21.35;;
65535;SDS011;52145;49.342;9.116;2023-02-15T00:02:38;39.28;;;21.27;;
65535;SDS011;52145;49.342;9.116;2023-02-15T00:05:04;39.67;;;22.17;;
65535;SDS011;52145;49.342;9.116;2023-02-15T00:07:30;43.08;;;23.38;;
65535;SDS011;52145;49.342;9.116;2023-02-15T00:09:55;38.05;;;21.13;;
65535;SDS011;52145;49.342;9.116;2023-02-15T00:12:21;40.30;;;21.25;;
65535;SDS011;52145;49.342;9.116;2023-02-15T00:14:47;39.10;;;22.23;;
65535;SDS011;52145;49.342;9.116;2023-02-15T00:17:12;41.60;;;21.63;;
65535;SDS011;52145;49.342;9.116;2023-02-15T00:19:38;39.20;;;20.77;;
65535;SDS011;52145;49.342;9.116;2023-02-15T00:22:05;39.92;;;21.42;;
65535;SDS011;52145;49.342;9.116;2023-02-15T00:24:31;41.67;;;22.65;;
65535;SDS011;52145;49.342;9.116;2023-02-15T00:26:57;43.65;;;21.90;;
65535;SDS011;52145;49.342;9.116;2023-02-15T00:29:22;37.85;;;21.42;;
65535;SDS011;52145;49.342;9.116;2023-02-15T00:31:48;42.30;;;21.48;;
65535;SDS011;52145;49.342;9.116;2023-02-15T00:34:16;46.78;;;23.02;;
65535;SDS011;52145;49.342;9.116;2023-02-15T00:36:45;41.40;;;23.20;;
65535;SDS011;52145;49.342;9.116;2023-02-15T00:39:11;42.83;;;21.75;;
65535;SDS011;52145;49.342;9.116;2023-02-15T00:41:37;41.03;;;22.38;;
65535;SDS011;52145;49.342;9.116;2023-02-15T00:44:03;41.10;;;22.08;;
65535;SDS011;52145;49.342;9.116;2023-02-15T00:46:29;44.00;;;23.55;;
65535;SDS011;52145;49.342;9.116;2023-02-15T00:48:55;43.15;;;23.08;;
65535;SDS011;52145;49.342;9.116;2023-02-15T00:51:21;44.00;;;20.98;;
65535;SDS011;52145;49.342;9.116;2023-02-15T00:53:46;46.05;;;23.15;;
65535;SDS011;52145;49.342;9.116;2023-02-15T00:56:12;45.65;;;22.80;;
65535;SDS011;52145;49.342;9.116;2023-02-15T00:58:38;43.00;;;21.98;;
65535;SDS011;52145;49.342;9.116;2023-02-15T10:26:41;23.63;;;13.60;;
65535;SDS011;52145;49.342;9.116;2023-02-15T10:32:07;20.63;;;12.68;;
65535;SDS011;52145;49.342;9.116;2023-02-15T10:37:56;21.95;;;11.98;;
65535;SDS011;52145;49.342;9.116;2023-02-15T10:43:17;19.55;;;11.73;;
65535;SDS011;52145;49.342;9.116;2023-02-15T10:46:00;17.77;;;11.48;;
65535;SDS011;52145;49.342;9.116;2023-02-15T10:59:23;24.45;;;13.38;;
65535;SDS011;52145;49.342;9.116;2023-02-15T11:08:00;20.73;;;12.00;;
65535;SDS011;52145;49.342;9.116;2023-02-15T11:10:32;23.25;;;13.13;;
65535;SDS011;52145;49.342;9.116;2023-02-15T11:13:02;21.02;;;13.10;;
65535;SDS011;52145;49.342;9.116;2023-02-15T11:15:41;22.00;;;12.90;;
65535;SDS011;52145;49.342;9.116;2023-02-15T11:20:53;19.13;;;12.52;;
65535;SDS011;52145;49.342;9.116;2023-02-15T11:23:39;21.05;;;12.40;;
65535;SDS011;52145;49.342;9.116;2023-02-15T11:26:12;21.92;;;13.35;;
65535;SDS011;52145;49.342;9.116;2023-02-15T11:28:51;19.85;;;12.25;;
65535;SDS011;52145;49.342;9.116;2023-02-15T11:31:21;22.05;;;13.73;;
65535;SDS011;52145;49.342;9.116;2023-02-15T11:33:50;20.77;;;12.55;;
65535;SDS011;52145;49.342;9.116;2023-02-15T11:36:33;21.13;;;13.18;;
65535;SDS011;52145;49.342;9.116;2023-02-15T11:39:04;19.75;;;12.57;;
65535;SDS011;52145;49.342;9.116;2023-02-15T11:41:37;23.30;;;13.98;;
65535;SDS011;52145;49.342;9.116;2023-02-15T11:46:42;24.58;;;14.75;;
65535;SDS011;52145;49.342;9.116;2023-02-15T11:49:30;24.15;;;13.90;;
65535;SDS011;52145;49.342;9.116;2023-02-15T11:52:00;23.30;;;14.60;;
65535;SDS011;52145;49.342;9.116;2023-02-15T11:54:30;23.15;;;14.13;;
65535;SDS011;52145;49.342;9.116;2023-02-15T11:57:44;21.67;;;13.65;;
65535;SDS011;52145;49.342;9.116;2023-02-15T11:59:59;22.92;;;14.00;;
65535;SDS011;52145;49.342;9.116;2023-02-15T12:02:35;20.40;;;13.68;;
65535;SDS011;52145;49.342;9.116;2023-02-15T12:05:05;22.05;;;13.35;;
65535;SDS011;52145;49.342;9.116;2023-02-15T12:11:00;22.48;;;14.27;;
65535;SDS011;52145;49.342;9.116;2023-02-15T12:13:32;20.23;;;12.93;;
65535;SDS011;52145;49.342;9.116;2023-02-15T12:15:58;18.98;;;11.95;;
65535;SDS011;52145;49.342;9.116;2023-02-15T12:21:08;20.52;;;13.00;;
65535;SDS011;52145;49.342;9.116;2023-02-15T12:23:47;20.25;;;12.77;;
65535;SDS011;52145;49.342;9.116;2023-02-15T12:26:23;17.48;;;11.30;;
65535;SDS011;52145;49.342;9.116;2023-02-15T12:28:53;18.95;;;12.25;;
65535;SDS011;52145;49.342;9.116;2023-02-15T12:34:08;17.60;;;11.48;;
65535;SDS011;52145;49.342;9.116;2023-02-15T12:36:44;16.10;;;11.35;;
65535;SDS011;52145;49.342;9.116;2023-02-15T12:39:20;15.07;;;11.13;;
65535;SDS011;52145;49.342;9.116;2023-02-15T12:44:29;18.08;;;11.10;;
65535;SDS011;52145;49.342;9.116;2023-02-15T12:47:01;18.15;;;12.65;;
65535;SDS011;52145;49.342;9.116;2023-02-15T12:49:36;20.15;;;12.40;;
65535;SDS011;52145;49.342;9.116;2023-02-15T12:52:25;17.35;;;12.52;;
65535;SDS011;52145;49.342;9.116;2023-02-15T12:54:50;20.90;;;13.57;;
65535;SDS011;52145;49.342;9.116;2023-02-15T12:59:54;18.05;;;11.95;;
65535;SDS011;52145;49.342;9.116;2023-02-15T13:02:22;18.13;;;12.10;;
65535;SDS011;52145;49.342;9.116;2023-02-15T13:05:19;18.30;;;11.90;;
65535;SDS011;52145;49.342;9.116;2023-02-15T13:07:56;17.27;;;12.45;;
65535;SDS011;52145;49.342;9.116;2023-02-15T13:12:49;17.67;;;13.05;;
65535;SDS011;52145;49.342;9.116;2023-02-15T13:15:23;16.63;;;12.57;;
65535;SDS011;52145;49.342;9.116;2023-02-15T13:17:52;17.25;;;12.60;;
65535;SDS011;52145;49.342;9.116;2023-02-15T13:20:20;16.30;;;12.18;;
65535;SDS011;52145;49.342;9.116;2023-02-15T13:22:48;16.00;;;11.82;;
65535;SDS011;52145;49.342;9.116;2023-02-15T13:25:18;18.30;;;13.07;;
65535;SDS011;52145;49.342;9.116;2023-02-15T13:28:13;18.20;;;12.60;;
65535;SDS011;52145;49.342;9.116;2023-02-15T13:30:40;18.75;;;13.10;;
65535;SDS011;52145;49.342;9.116;2023-02-15T13:33:15;18.27;;;13.23;;
65535;SDS011;52145;49.342;9.116;2023-02-15T13:36:11;19.13;;;13.93;;
65535;SDS011;52145;49.342;9.116;2023-02-15T13:41:33;17.30;;;12.82;;
65535;SDS011;52145;49.342;9.116;2023-02-15T13:46:47;17.10;;;13.25;;
65535;SDS011;52145;49.342;9.116;2023-02-15T13:54:46;16.88;;;12.48;;
65535;SDS011;52145;49.342;9.116;2023-02-15T13:57:40;17.17;;;12.48;;
65535;SDS011;52145;49.342;9.116;2023-02-15T14:19:55;17.55;;;12.77;;
65535;SDS011;52145;49.342;9.116;2023-02-15T14:30:30;16.20;;;12.55;;
65535;SDS011;52145;49.342;9.116;2023-02-15T14:33:00;14.93;;;12.15;;
65535;SDS011;52145;49.342;9.116;2023-02-15T14:35:37;15.43;;;13.18;;
65535;SDS011;52145;49.342;9.116;2023-02-15T14:40:38;16.10;;;11.95;;
65535;SDS011;52145;49.342;9.116;2023-02-15T14:48:53;17.63;;;13.23;;
65535;SDS011;52145;49.342;9.116;2023-02-15T14:54:09;17.23;;;13.35;;
65535;SDS011;52145;49.342;9.116;2023-02-15T14:56:35;18.70;;;14.02;;
65535;SDS011;52145;49.342;9.116;2023-02-15T15:04:24;19.75;;;13.68;;
65535;SDS011;52145;49.342;9.116;2023-02-15T15:09:48;21.48;;;16.13;;
65535;SDS011;52145;49.342;9.116;2023-02-15T15:14:51;25.63;;;15.55;;
65535;SDS011;52145;49.342;9.116;2023-02-15T15:20:00;19.17;;;13.73;;
65535;SDS011;52145;49.342;9.116;2023-02-15T15:22:29;18.30;;;13.02;;
65535;SDS011;52145;49.342;9.116;2023-02-15T15:46:34;22.10;;;13.63;;
65535;SDS011;52145;49.342;9.116;2023-02-15T15:49:21;23.40;;;13.68;;
65535;SDS011;52145;49.342;9.116;2023-02-15T15:51:49;23.35;;;13.77;;
65535;SDS011;52145;49.342;9.116;2023-02-15T15:54:19;23.63;;;14.00;;
65535;SDS011;52145;49.342;9.116;2023-02-15T15:56:51;21.73;;;14.07;;
65535;SDS011;52145;49.342;9.116;2023-02-15T15:59:21;22.75;;;14.13;;
65535;SDS011;52145;49.342;9.116;2023-02-15T16:01:49;21.25;;;14.63;;
65535;SDS011;52145;49.342;9.116;2023-02-15T16:04:23;19.80;;;13.63;;
65535;SDS011;52145;49.342;9.116;2023-02-15T16:06:55;23.65;;;15.63;;
65535;SDS011;52145;49.342;9.116;2023-02-15T16:09:38;21.35;;;13.65;;
65535;SDS011;52145;49.342;9.116;2023-02-15T16:12:04;23.52;;;14.02;;
65535;SDS011;52145;49.342;9.116;2023-02-15T16:14:39;24.38;;;14.82;;
65535;SDS011;52145;49.342;9.116;2023-02-15T16:17:07;24.92;;;15.45;;
65535;SDS011;52145;49.342;9.116;2023-02-15T16:19:40;27.27;;;17.42;;
65535;SDS011;52145;49.342;9.116;2023-02-15T16:22:11;28.63;;;17.52;;
65535;SDS011;52145;49.342;9.116;2023-02-15T16:25:03;25.13;;;17.05;;
65535;SDS011;52145;49.342;9.116;2023-02-15T16:27:43;28.75;;;17.05;;
65535;SDS011;52145;49.342;9.116;2023-02-15T16:30:20;31.15;;;17.33;;
65535;SDS011;52145;49.342;9.116;2023-02-15T16:32:46;36.28;;;19.02;;
65535;SDS011;52145;49.342;9.116;2023-02-15T16:35:16;31.25;;;17.73;;
65535;SDS011;52145;49.342;9.116;2023-02-15T16:37:43;35.08;;;18.65;;
65535;SDS011;52145;49.342;9.116;2023-02-15T16:40:51;32.13;;;17.70;;
65535;SDS011;52145;49.342;9.116;2023-02-15T16:43:00;33.92;;;17.67;;
65535;SDS011;52145;49.342;9.116;2023-02-15T16:45:28;33.67;;;17.80;;
65535;SDS011;52145;49.342;9.116;2023-02-15T16:47:57;28.50;;;18.65;;
65535;SDS011;52145;49.342;9.116;2023-02-15T16:50:28;31.60;;;17.08;;
65535;SDS011;52145;49.342;9.116;2023-02-15T16:53:00;30.65;;;17.27;;
65535;SDS011;52145;49.342;9.116;2023-02-15T16:55:27;28.52;;;17.10;;
65535;SDS011;52145;49.342;9.116;2023-02-15T16:58:04;33.75;;;17.50;;
65535;SDS011;52145;49.342;9.116;2023-02-15T17:00:33;32.50;;;16.63;;
65535;SDS011;52145;49.342;9.116;2023-02-15T17:03:02;33.42;;;18.73;;
65535;SDS011;52145;49.342;9.116;2023-02-15T17:05:54;34.20;;;19.17;;
65535;SDS011;52145;49.342;9.116;2023-02-15T17:13:23;31.15;;;17.67;;
65535;SDS011;52145;49.342;9.116;2023-02-15T17:18:25;32.78;;;17.85;;
65535;SDS011;52145;49.342;9.116;2023-02-15T17:20:54;32.40;;;18.15;;
65535;SDS011;52145;49.342;9.116;2023-02-15T17:23:35;32.28;;;19.75;;
65535;SDS011;52145;49.342;9.116;2023-02-15T17:28:47;37.38;;;21.83;;
65535;SDS011;52145;49.342;9.116;2023-02-15T17:31:16;38.22;;;20.58;;
65535;SDS011;52145;49.342;9.116;2023-02-15T17:33:45;34.80;;;19.85;;
65535;SDS011;52145;49.342;9.116;2023-02-15T17:36:16;34.40;;;18.73;;
65535;SDS011;52145;49.342;9.116;2023-02-15T17:41:25;29.48;;;17.77;;
65535;SDS011;52145;49.342;9.116;2023-02-15T17:43:52;29.15;;;17.90;;
65535;SDS011;52145;49.342;9.116;2023-02-15T17:46:18;30.25;;;18.27;;
65535;SDS011;52145;49.342;9.116;2023-02-15T17:48:47;31.25;;;17.98;;
65535;SDS011;52145;49.342;9.116;2023-02-15T17:51:14;28.95;;;17.25;;
65535;SDS011;52145;49.342;9.116;2023-02-15T17:53:40;31.45;;;18.00;;
65535;SDS011;52145;49.342;9.116;2023-02-15T17:56:26;38.60;;;19.98;;
65535;SDS011;52145;49.342;9.116;2023-02-15T17:58:52;37.42;;;20.00;;
65535;SDS011;52145;49.342;9.116;2023-02-15T18:01:17;29.98;;;18.13;;
65535;SDS011;52145;49.342;9.116;2023-02-15T18:04:04;35.47;;;18.95;;
65535;SDS011;52145;49.342;9.116;2023-02-15T18:06:51;30.23;;;16.95;;
65535;SDS011;52145;49.342;9.116;2023-02-15T18:09:35;31.85;;;17.85;;
65535;SDS011;52145;49.342;9.116;2023-02-15T18:12:21;29.13;;;18.05;;
65535;SDS011;52145;49.342;9.116;2023-02-15T18:14:47;30.38;;;18.10;;
65535;SDS011;52145;49.342;9.116;2023-02-15T18:17:13;27.00;;;17.27;;
65535;SDS011;52145;49.342;9.116;2023-02-15T18:19:40;28.27;;;17.40;;
65535;SDS011;52145;49.342;9.116;2023-02-15T18:22:15;28.67;;;16.73;;
65535;SDS011;52145;49.342;9.116;2023-02-15T18:24:43;31.50;;;18.30;;
65535;SDS011;52145;49.342;9.116;2023-02-15T18:27:10;29.38;;;17.55;;
65535;SDS011;52145;49.342;9.116;2023-02-15T18:29:36;34.10;;;18.85;;
65535;SDS011;52145;49.342;9.116;2023-02-15T18:32:02;27.58;;;17.33;;
65535;SDS011;52145;49.342;9.116;2023-02-15T18:34:32;30.38;;;18.45;;
65535;SDS011;52145;49.342;9.116;2023-02-15T18:37:02;32.33;;;18.88;;
65535;SDS011;52145;49.342;9.116;2023-02-15T18:47:45;30.35;;;18.08;;
65535;SDS011;52145;49.342;9.116;2023-02-15T18:50:14;31.38;;;18.60;;
65535;SDS011;52145;49.342;9.116;2023-02-15T18:52:42;34.17;;;18.27;;
65535;SDS011;52145;49.342;9.116;2023-02-15T18:55:17;29.42;;;18.00;;
65535;SDS011;52145;49.342;9.116;2023-02-15T18:57:46;33.75;;;18.00;;
65535;SDS011;52145;49.342;9.116;2023-02-15T19:00:13;31.52;;;19.45;;
65535;SDS011;52145;49.342;9.116;2023-02-15T19:02:41;32.25;;;18.63;;
65535;SDS011;52145;49.342;9.116;2023-02-15T19:05:07;34.38;;;18.98;;
65535;SDS011;52145;49.342;9.116;2023-02-15T19:07:32;30.42;;;18.63;;
65535;SDS011;52145;49.342;9.116;2023-02-15T19:10:00;32.15;;;19.13;;
65535;SDS011;52145;49.342;9.116;2023-02-15T19:12:28;34.25;;;19.40;;
65535;SDS011;52145;49.342;9.116;2023-02-15T19:14:54;34.78;;;19.80;;
65535;SDS011;52145;49.342;9.116;2023-02-15T19:17:20;34.47;;;19.05;;
65535;SDS011;52145;49.342;9.116;2023-02-15T19:19:47;32.88;;;19.25;;
65535;SDS011;52145;49.342;9.116;2023-02-15T19:22:18;35.45;;;18.77;;
65535;SDS011;52145;49.342;9.116;2023-02-15T19:24:56;30.38;;;18.20;;
65535;SDS011;52145;49.342;9.116;2023-02-15T19:27:26;34.28;;;20.52;;
65535;SDS011;52145;49.342;9.116;2023-02-15T19:29:55;34.80;;;19.20;;
65535;SDS011;52145;49.342;9.116;2023-02-15T19:32:23;35.67;;;19.23;;
65535;SDS011;52145;49.342;9.116;2023-02-15T19:34:49;39.53;;;20.83;;
65535;SDS011;52145;49.342;9.116;2023-02-15T19:37:19;31.60;;;18.88;;
65535;SDS011;52145;49.342;9.116;2023-02-15T19:39:53;33.70;;;19.25;;
65535;SDS011;52145;49.342;9.116;2023-02-15T19:42:21;34.58;;;20.27;;
65535;SDS011;52145;49.342;9.116;2023-02-15T19:44:47;34.00;;;19.88;;
65535;SDS011;52145;49.342;9.116;2023-02-15T19:47:14;31.65;;;19.73;;
65535;SDS011;52145;49.342;9.116;2023-02-15T19:49:40;33.40;;;19.23;;
65535;SDS011;52145;49.342;9.116;2023-02-15T19:52:12;33.88;;;19.42;;
65535;SDS011;52145;49.342;9.116;2023-02-15T19:54:41;32.30;;;19.50;;
65535;SDS011;52145;49.342;9.116;2023-02-15T19:57:09;40.67;;;19.20;;
65535;SDS011;52145;49.342;9.116;2023-02-15T19:59:36;33.83;;;19.42;;
65535;SDS011;52145;49.342;9.116;2023-02-15T20:02:01;35.35;;;19.70;;
65535;SDS011;52145;49.342;9.116;2023-02-15T20:04:27;34.22;;;20.80;;
65535;SDS011;52145;49.342;9.116;2023-02-15T20:06:53;34.05;;;19.88;;
65535;SDS011;52145;49.342;9.116;2023-02-15T20:09:25;31.77;;;20.13;;
65535;SDS011;52145;49.342;9.116;2023-02-15T20:11:54;36.60;;;20.17;;
65535;SDS011;52145;49.342;9.116;2023-02-15T20:14:20;33.78;;;19.65;;
65535;SDS011;52145;49.342;9.116;2023-02-15T20:16:46;35.40;;;19.77;;
65535;SDS011;52145;49.342;9.116;2023-02-15T20:19:12;36.15;;;19.25;;
65535;SDS011;52145;49.342;9.116;2023-02-15T20:21:39;33.95;;;19.10;;
65535;SDS011;52145;49.342;9.116;2023-02-15T20:24:06;38.00;;;21.00;;
65535;SDS011;52145;49.342;9.116;2023-02-15T20:26:41;34.13;;;19.75;;
65535;SDS011;52145;49.342;9.116;2023-02-15T20:29:14;33.17;;;18.55;;
65535;SDS011;52145;49.342;9.116;2023-02-15T20:31:42;35.90;;;20.70;;
65535;SDS011;52145;49.342;9.116;2023-02-15T20:34:08;33.83;;;19.88;;
65535;SDS011;52145;49.342;9.116;2023-02-15T20:36:35;38.53;;;19.70;;
65535;SDS011;52145;49.342;9.116;2023-02-15T20:39:03;35.08;;;19.75;;
65535;SDS011;52145;49.342;9.116;2023-02-15T20:41:36;37.85;;;20.33;;
65535;SDS011;52145;49.342;9.116;2023-02-15T20:46:52;35.25;;;20.00;;
65535;SDS011;52145;49.342;9.116;2023-02-15T20:49:20;35.00;;;19.17;;
65535;SDS011;52145;49.342;9.116;2023-02-15T20:51:48;35.13;;;20.42;;
65535;SDS011;52145;49.342;9.116;2023-02-15T20:56:41;36.08;;;20.38;;
65535;SDS011;52145;49.342;9.116;2023-02-15T21:01:53;37.55;;;20.20;;
65535;SDS011;52145;49.342;9.116;2023-02-15T21:04:32;36.95;;;20.90;;
65535;SDS011;52145;49.342;9.116;2023-02-15T21:06:58;37.92;;;20.38;;
65535;SDS011;52145;49.342;9.116;2023-02-15T21:09:24;36.53;;;20.65;;
65535;SDS011;52145;49.342;9.116;2023-02-15T21:11:51;35.90;;;20.05;;
65535;SDS011;52145;49.342;9.116;2023-02-15T21:14:20;37.63;;;20.80;;
65535;SDS011;52145;49.342;9.116;2023-02-15T21:16:48;32.85;;;20.42;;
65535;SDS011;52145;49.342;9.116;2023-02-15T21:19:18;37.03;;;20.75;;
65535;SDS011;52145;49.342;9.116;2023-02-15T21:21:45;37.22;;;20.17;;
65535;SDS011;52145;49.342;9.116;2023-02-15T21:24:13;36.80;;;19.60;;
65535;SDS011;52145;49.342;9.116;2023-02-15T21:26:45;33.55;;;19.02;;
65535;SDS011;52145;49.342;9.116;2023-02-15T21:29:15;34.03;;;19.77;;
65535;SDS011;52145;49.342;9.116;2023-02-15T21:31:45;31.58;;;18.88;;
65535;SDS011;52145;49.342;9.116;2023-02-15T21:34:11;37.83;;;19.58;;
65535;SDS011;52145;49.342;9.116;2023-02-15T21:36:37;36.40;;;20.02;;
65535;SDS011;52145;49.342;9.116;2023-02-15T21:39:04;32.25;;;19.13;;
65535;SDS011;52145;49.342;9.116;2023-02-15T21:41:30;36.58;;;20.55;;
65535;SDS011;52145;49.342;9.116;2023-02-15T21:44:19;36.17;;;19.03;;
65535;SDS011;52145;49.342;9.116;2023-02-15T21:47:14;31.67;;;17.80;;
65535;SDS011;52145;49.342;9.116;2023-02-15T21:50:00;34.13;;;20.23;;
65535;SDS011;52145;49.342;9.116;2023-02-15T21:52:46;35.67;;;19.38;;
65535;SDS011;52145;49.342;9.116;2023-02-15T21:55:12;32.92;;;19.20;;
65535;SDS011;52145;49.342;9.116;2023-02-15T21:57:39;35.83;;;19.88;;
65535;SDS011;52145;49.342;9.116;2023-02-15T22:00:04;35.65;;;21.25;;
65535;SDS011;52145;49.342;9.116;2023-02-15T22:02:32;36.25;;;19.77;;
65535;SDS011;52145;49.342;9.116;2023-02-15T22:04:57;36.63;;;19.13;;
65535;SDS011;52145;49.342;9.116;2023-02-15T22:07:23;33.45;;;19.92;;
65535;SDS011;52145;49.342;9.116;2023-02-15T22:09:48;35.33;;;20.00;;
65535;SDS011;52145;49.342;9.116;2023-02-15T22:12:15;35.08;;;19.80;;
65535;SDS011;52145;49.342;9.116;2023-02-15T22:14:42;37.28;;;20.05;;
65535;SDS011;52145;49.342;9.116;2023-02-15T22:17:19;36.15;;;19.40;;
65535;SDS011;52145;49.342;9.116;2023-02-15T22:19:47;36.60;;;20.27;;
65535;SDS011;52145;49.342;9.116;2023-02-15T22:22:13;35.45;;;19.17;;
65535;SDS011;52145;49.342;9.116;2023-02-15T22:24:40;35.85;;;19.20;;
65535;SDS011;52145;49.342;9.116;2023-02-15T22:27:06;35.38;;;19.77;;
65535;SDS011;52145;49.342;9.116;2023-02-15T22:29:42;39.83;;;21.13;;
65535;SDS011;52145;49.342;9.116;2023-02-15T22:32:18;37.00;;;20.02;;
65535;SDS011;52145;49.342;9.116;2023-02-15T22:34:46;37.50;;;20.58;;
65535;SDS011;52145;49.342;9.116;2023-02-15T22:37:11;37.60;;;21.83;;
65535;SDS011;52145;49.342;9.116;2023-02-15T22:39:37;35.85;;;19.02;;
65535;SDS011;52145;49.342;9.116;2023-02-15T22:42:03;38.17;;;19.38;;
65535;SDS011;52145;49.342;9.116;2023-02-15T22:44:31;35.38;;;19.17;;
65535;SDS011;52145;49.342;9.116;2023-02-15T22:46:58;35.97;;;19.23;;
65535;SDS011;52145;49.342;9.116;2023-02-15T22:49:25;34.83;;;19.58;;
65535;SDS011;52145;49.342;9.116;2023-02-15T22:51:51;36.47;;;21.00;;
65535;SDS011;52145;49.342;9.116;2023-02-15T22:54:17;35.67;;;20.45;;
65535;SDS011;52145;49.342;9.116;2023-02-15T22:56:45;35.03;;;19.63;;
65535;SDS011;52145;49.342;9.116;2023-02-15T22:59:15;37.95;;;21.13;;
65535;SDS011;52145;49.342;9.116;2023-02-15T23:01:45;33.22;;;19.35;;
65535;SDS011;52145;49.342;9.116;2023-02-15T23:04:29;37.42;;;19.23;;
65535;SDS011;52145;49.342;9.116;2023-02-15T23:06:55;38.60;;;20.90;;
65535;SDS011;52145;49.342;9.116;2023-02-15T23:09:23;35.53;;;20.88;;
65535;SDS011;52145;49.342;9.116;2023-02-15T23:11:49;35.53;;;20.17;;
65535;SDS011;52145;49.342;9.116;2023-02-15T23:14:23;37.88;;;20.13;;
65535;SDS011;52145;49.342;9.116;2023-02-15T23:16:51;35.78;;;18.60;;
65535;SDS011;52145;49.342;9.116;2023-02-15T23:19:17;34.55;;;18.90;;
65535;SDS011;52145;49.342;9.116;2023-02-15T23:21:43;32.03;;;18.65;;
65535;SDS011;52145;49.342;9.116;2023-02-15T23:24:13;34.83;;;17.65;;
65535;SDS011;52145;49.342;9.116;2023-02-15T23:26:42;34.35;;;18.15;;
65535;SDS011;52145;49.342;9.116;2023-02-15T23:29:12;28.30;;;17.00;;
65535;SDS011;52145;49.342;9.116;2023-02-15T23:31:46;30.60;;;17.05;;
65535;SDS011;52145;49.342;9.116;2023-02-15T23:34:15;32.47;;;19.33;;
65535;SDS011;52145;49.342;9.116;2023-02-15T23:36:46;35.40;;;18.65;;
65535;SDS011;52145;49.342;9.116;2023-02-15T23:39:19;34.03;;;19.65;;
65535;SDS011;52145;49.342;9.116;2023-02-15T23:42:29;34.53;;;18.83;;
65535;SDS011;52145;49.342;9.116;2023-02-15T23:44:57;36.28;;;19.10;;
65535;SDS011;52145;49.342;9.116;2023-02-15T23:47:23;38.40;;;21.27;;
65535;SDS011;52145;49.342;9.116;2023-02-15T23:50:21;35.65;;;19.58;;
65535;SDS011;52145;49.342;9.116;2023-02-15T23:52:49;33.58;;;19.58;;
65535;SDS011;52145;49.342;9.116;2023-02-15T23:55:15;32.80;;;19.23;;
65535;SDS011;52145;49.342;9.116;2023-02-15T23:57:41;37.05;;;20.42;;
